createdAt,value
2022-08-22T00:00:10.301Z,68.48
2022-08-22T00:01:11.274Z,68.68
2022-08-22T00:02:10.328Z,68.68
2022-08-22T00:02:44.477Z,62.39
2022-08-22T00:02:56.359Z,61.30
2022-08-22T00:02:59.525Z,61.55
2022-08-22T00:03:02.492Z,58.89
2022-08-22T00:03:02.937Z,61.22
2022-08-22T00:04:11.245Z,68.38
2022-08-22T00:05:10.257Z,68.28
2022-08-22T00:06:10.224Z,68.38
2022-08-22T00:07:10.212Z,68.28
2022-08-22T00:08:10.206Z,67.97
2022-08-22T00:09:10.211Z,68.08
2022-08-22T00:10:10.183Z,67.88
2022-08-22T00:11:10.175Z,67.68
2022-08-22T00:12:10.163Z,67.68
2022-08-22T00:13:10.164Z,67.57
2022-08-22T00:14:10.163Z,67.80
2022-08-22T00:15:31.531Z,67.80
2022-08-22T00:16:11.118Z,67.80
2022-08-22T00:17:10.110Z,67.50
2022-08-22T00:18:10.110Z,67.71
2022-08-22T00:19:10.111Z,68.01
2022-08-22T00:20:10.081Z,68.21
2022-08-22T00:21:10.070Z,68.31
2022-08-22T00:22:10.062Z,68.24
2022-08-22T00:23:10.043Z,68.34
2022-08-22T00:24:10.057Z,68.85
2022-08-22T00:25:24.847Z,68.95
2022-08-22T00:26:11.015Z,69.15
2022-08-22T00:27:10.012Z,69.55
2022-08-22T00:28:09.996Z,69.48
2022-08-22T00:29:10.016Z,69.68
2022-08-22T00:30:09.975Z,69.68
2022-08-22T00:31:09.967Z,69.99
2022-08-22T00:32:10.360Z,70.19
2022-08-22T00:33:09.939Z,70.19
2022-08-22T00:34:09.941Z,70.29
2022-08-22T00:35:09.920Z,70.39
2022-08-22T00:36:09.911Z,70.49
2022-08-22T00:37:09.902Z,70.49
2022-08-22T00:38:09.891Z,70.29
2022-08-22T00:39:09.895Z,70.29
2022-08-22T00:40:09.936Z,70.29
2022-08-22T00:41:09.874Z,69.59
2022-08-22T00:42:09.917Z,69.18
2022-08-22T00:43:09.843Z,69.18
2022-08-22T00:44:09.856Z,69.28
2022-08-22T00:45:09.823Z,69.08
2022-08-22T00:46:09.808Z,69.08
2022-08-22T00:47:09.794Z,69.18
2022-08-22T00:48:09.785Z,69.18
2022-08-22T00:49:09.788Z,68.17
2022-08-22T00:50:09.766Z,67.87
2022-08-22T00:51:09.754Z,68.48
2022-08-22T00:52:09.744Z,68.37
2022-08-22T00:53:09.734Z,68.68
2022-08-22T00:54:17.508Z,68.77
2022-08-22T00:55:10.709Z,68.88
2022-08-22T00:56:09.709Z,69.08
2022-08-22T00:57:09.689Z,69.42
2022-08-22T00:58:09.696Z,69.42
2022-08-22T00:59:23.925Z,69.42
2022-08-22T01:00:10.664Z,69.42
2022-08-22T01:01:09.694Z,69.52
2022-08-22T01:02:09.640Z,69.92
2022-08-22T01:03:09.627Z,70.12
2022-08-22T01:04:09.635Z,70.02
2022-08-22T01:05:09.602Z,69.92
2022-08-22T01:06:09.595Z,69.92
2022-08-22T01:07:09.590Z,69.92
2022-08-22T01:08:09.583Z,69.92
2022-08-22T01:09:09.589Z,70.02
2022-08-22T01:10:09.566Z,70.22
2022-08-22T01:11:09.544Z,70.22
2022-08-22T01:12:09.529Z,70.32
2022-08-22T01:13:09.518Z,70.36
2022-08-22T01:14:09.524Z,70.26
2022-08-22T01:15:09.496Z,70.46
2022-08-22T01:16:09.493Z,70.56
2022-08-22T01:17:09.499Z,70.06
2022-08-22T01:18:09.466Z,70.15
2022-08-22T01:19:09.467Z,70.15
2022-08-22T01:20:09.449Z,70.15
2022-08-22T01:21:09.449Z,69.95
2022-08-22T01:22:09.427Z,69.75
2022-08-22T01:23:09.412Z,69.65
2022-08-22T01:24:09.418Z,69.65
2022-08-22T01:25:09.388Z,69.85
2022-08-22T01:26:10.722Z,69.65
2022-08-22T01:27:09.368Z,69.75
2022-08-22T01:28:09.358Z,69.85
2022-08-22T01:29:10.387Z,69.98
2022-08-22T01:30:09.351Z,70.19
2022-08-22T01:31:09.325Z,70.39
2022-08-22T01:32:09.315Z,70.49
2022-08-22T01:33:09.304Z,70.59
2022-08-22T01:34:11.295Z,70.69
2022-08-22T01:35:09.352Z,70.89
2022-08-22T01:36:09.274Z,71.00
2022-08-22T01:37:09.260Z,70.89
2022-08-22T01:38:09.254Z,70.89
2022-08-22T01:39:09.240Z,71.00
2022-08-22T01:40:09.308Z,71.10
2022-08-22T01:41:10.419Z,71.10
2022-08-22T01:42:09.210Z,71.10
2022-08-22T01:43:09.209Z,71.20
2022-08-22T01:44:09.187Z,71.20
2022-08-22T01:45:09.207Z,71.33
2022-08-22T01:46:09.171Z,71.23
2022-08-22T01:47:09.163Z,71.44
2022-08-22T01:48:09.146Z,71.44
2022-08-22T01:49:09.132Z,71.44
2022-08-22T01:50:09.137Z,71.53
2022-08-22T01:51:09.112Z,71.53
2022-08-22T01:52:09.105Z,71.33
2022-08-22T01:53:09.090Z,71.23
2022-08-22T01:54:09.816Z,71.23
2022-08-22T01:55:09.113Z,71.33
2022-08-22T01:56:09.061Z,71.44
2022-08-22T01:57:09.066Z,71.44
2022-08-22T01:58:09.036Z,71.57
2022-08-22T01:59:11.099Z,71.77
2022-08-22T02:00:09.029Z,71.97
2022-08-22T02:01:09.057Z,72.08
2022-08-22T02:02:08.995Z,72.28
2022-08-22T02:03:08.988Z,72.38
2022-08-22T02:04:08.974Z,72.48
2022-08-22T02:05:08.975Z,72.38
2022-08-22T02:06:08.953Z,72.08
2022-08-22T02:07:09.939Z,72.08
2022-08-22T02:08:08.932Z,72.17
2022-08-22T02:09:08.924Z,72.17
2022-08-22T02:10:08.927Z,72.38
2022-08-22T02:11:08.899Z,72.38
2022-08-22T02:12:13.831Z,72.28
2022-08-22T02:13:09.901Z,72.17
2022-08-22T02:14:08.867Z,72.38
2022-08-22T02:15:09.378Z,72.48
2022-08-22T02:16:08.847Z,72.68
2022-08-22T02:17:08.837Z,72.58
2022-08-22T02:18:08.823Z,72.58
2022-08-22T02:19:08.833Z,72.68
2022-08-22T02:20:08.818Z,72.78
2022-08-22T02:21:08.797Z,72.78
2022-08-22T02:22:08.784Z,72.68
2022-08-22T02:23:08.782Z,72.78
2022-08-22T02:24:08.778Z,72.68
2022-08-22T02:25:09.222Z,72.78
2022-08-22T02:26:08.782Z,72.58
2022-08-22T02:27:08.733Z,72.31
2022-08-22T02:28:08.718Z,72.41
2022-08-22T02:29:08.709Z,72.51
2022-08-22T02:30:08.709Z,72.72
2022-08-22T02:31:08.704Z,72.81
2022-08-22T02:32:08.686Z,73.02
2022-08-22T02:33:08.686Z,73.12
2022-08-22T02:34:08.663Z,73.32
2022-08-22T02:35:08.687Z,73.32
2022-08-22T02:36:08.638Z,73.22
2022-08-22T02:37:08.623Z,73.02
2022-08-22T02:38:08.637Z,72.92
2022-08-22T02:39:08.607Z,72.81
2022-08-22T02:40:08.690Z,72.72
2022-08-22T02:41:08.582Z,72.51
2022-08-22T02:42:08.573Z,72.61
2022-08-22T02:43:08.564Z,72.81
2022-08-22T02:44:08.549Z,72.81
2022-08-22T02:45:08.555Z,72.81
2022-08-22T02:46:08.553Z,72.92
2022-08-22T02:47:08.531Z,72.92
2022-08-22T02:48:08.508Z,73.05
2022-08-22T02:49:08.497Z,73.05
2022-08-22T02:50:12.979Z,73.05
2022-08-22T02:51:08.494Z,73.15
2022-08-22T02:52:08.467Z,73.25
2022-08-22T02:53:08.474Z,73.46
2022-08-22T02:54:08.458Z,73.56
2022-08-22T02:55:08.481Z,73.56
2022-08-22T02:56:08.425Z,73.66
2022-08-22T02:57:14.043Z,73.76
2022-08-22T02:58:09.403Z,73.86
2022-08-22T02:59:08.394Z,73.96
2022-08-22T03:00:31.090Z,73.96
2022-08-22T03:01:09.392Z,73.86
2022-08-22T03:02:08.360Z,73.96
2022-08-22T03:03:08.362Z,74.07
2022-08-22T03:04:08.358Z,74.16
2022-08-22T03:05:08.347Z,74.40
2022-08-22T03:06:08.320Z,74.51
2022-08-22T03:07:08.307Z,74.60
2022-08-22T03:08:08.297Z,74.60
2022-08-22T03:09:08.290Z,74.81
2022-08-22T03:10:08.305Z,74.81
2022-08-22T03:11:08.270Z,74.81
2022-08-22T03:12:08.258Z,74.71
2022-08-22T03:13:08.261Z,74.71
2022-08-22T03:14:08.266Z,74.71
2022-08-22T03:15:08.259Z,74.71
2022-08-22T03:16:08.212Z,74.71
2022-08-22T03:17:08.203Z,74.71
2022-08-22T03:18:08.192Z,74.81
2022-08-22T03:19:08.183Z,74.91
2022-08-22T03:20:09.192Z,74.71
2022-08-22T03:21:08.164Z,74.71
2022-08-22T03:22:08.150Z,74.74
2022-08-22T03:23:08.141Z,74.84
2022-08-22T03:24:08.130Z,74.95
2022-08-22T03:25:08.141Z,75.04
2022-08-22T03:26:08.121Z,75.04
2022-08-22T03:27:08.120Z,75.15
2022-08-22T03:28:08.092Z,75.15
2022-08-22T03:29:08.077Z,75.04
2022-08-22T03:30:08.107Z,75.04
2022-08-22T03:31:08.066Z,74.84
2022-08-22T03:32:08.048Z,74.84
2022-08-22T03:33:08.041Z,74.84
2022-08-22T03:34:08.027Z,74.95
2022-08-22T03:35:08.032Z,75.04
2022-08-22T03:36:08.006Z,75.15
2022-08-22T03:37:07.996Z,75.25
2022-08-22T03:38:07.981Z,75.25
2022-08-22T03:39:11.227Z,75.15
2022-08-22T03:40:09.053Z,74.84
2022-08-22T03:41:07.951Z,74.64
2022-08-22T03:42:07.943Z,74.84
2022-08-22T03:43:07.933Z,74.84
2022-08-22T03:44:07.933Z,74.84
2022-08-22T03:45:07.926Z,75.04
2022-08-22T03:46:08.038Z,75.18
2022-08-22T03:47:07.895Z,75.04
2022-08-22T03:48:07.879Z,74.98
2022-08-22T03:49:07.879Z,74.98
2022-08-22T03:50:07.880Z,75.08
2022-08-22T03:51:07.848Z,75.08
2022-08-22T03:52:07.843Z,75.18
2022-08-22T03:53:12.170Z,75.18
2022-08-22T03:54:08.817Z,75.28
2022-08-22T03:55:07.834Z,75.38
2022-08-22T03:56:07.801Z,75.49
2022-08-22T03:57:07.787Z,75.59
2022-08-22T03:58:07.777Z,75.59
2022-08-22T03:59:10.241Z,75.69
2022-08-22T04:00:07.770Z,75.59
2022-08-22T04:01:07.827Z,75.69
2022-08-22T04:02:41.825Z,75.69
2022-08-22T04:03:08.722Z,75.59
2022-08-22T04:04:07.727Z,75.69
2022-08-22T04:05:07.762Z,75.79
2022-08-22T04:06:11.583Z,75.69
2022-08-22T04:07:17.749Z,75.79
2022-08-22T04:08:09.925Z,75.79
2022-08-22T04:09:07.670Z,75.79
2022-08-22T04:10:07.661Z,75.82
2022-08-22T04:11:07.638Z,75.93
2022-08-22T04:12:07.628Z,76.03
2022-08-22T04:13:07.619Z,76.03
2022-08-22T04:14:07.608Z,76.03
2022-08-22T04:15:07.644Z,76.23
2022-08-22T04:16:07.597Z,76.23
2022-08-22T04:17:07.598Z,76.03
2022-08-22T04:18:07.563Z,76.13
2022-08-22T04:19:08.040Z,76.23
2022-08-22T04:20:07.551Z,76.23
2022-08-22T04:21:07.557Z,76.13
2022-08-22T04:22:07.533Z,76.23
2022-08-22T04:23:07.517Z,76.33
2022-08-22T04:24:07.500Z,76.43
2022-08-22T04:25:08.314Z,76.54
2022-08-22T04:26:11.924Z,76.43
2022-08-22T04:27:08.509Z,76.54
2022-08-22T04:28:07.462Z,76.33
2022-08-22T04:29:07.449Z,76.54
2022-08-22T04:30:07.450Z,76.54
2022-08-22T04:31:07.454Z,76.54
2022-08-22T04:32:09.737Z,76.54
2022-08-22T04:33:07.407Z,76.54
2022-08-22T04:34:07.399Z,76.64
2022-08-22T04:35:07.387Z,76.74
2022-08-22T04:36:07.388Z,76.74
2022-08-22T04:37:07.368Z,76.74
2022-08-22T04:38:09.141Z,76.74
2022-08-22T04:39:07.364Z,76.74
2022-08-22T04:40:07.396Z,76.84
2022-08-22T04:41:07.361Z,76.74
2022-08-22T04:42:31.191Z,76.64
2022-08-22T04:43:08.306Z,76.64
2022-08-22T04:44:07.308Z,76.64
2022-08-22T04:45:07.287Z,76.64
2022-08-22T04:46:07.314Z,76.74
2022-08-22T04:47:07.262Z,76.84
2022-08-22T04:48:07.249Z,76.94
2022-08-22T04:49:07.240Z,76.94
2022-08-22T04:50:07.231Z,76.94
2022-08-22T04:51:07.234Z,76.94
2022-08-22T04:52:07.217Z,76.94
2022-08-22T04:53:07.215Z,76.94
2022-08-22T04:54:07.185Z,76.98
2022-08-22T04:55:07.174Z,77.08
2022-08-22T04:56:07.821Z,77.18
2022-08-22T04:57:07.175Z,77.18
2022-08-22T04:58:07.162Z,77.28
2022-08-22T04:59:07.137Z,77.18
2022-08-22T05:00:07.120Z,77.28
2022-08-22T05:01:07.130Z,77.38
2022-08-22T05:02:07.169Z,77.38
2022-08-22T05:03:07.095Z,77.48
2022-08-22T05:04:07.079Z,77.59
2022-08-22T05:05:13.527Z,77.59
2022-08-22T05:06:08.071Z,77.55
2022-08-22T05:07:07.047Z,77.69
2022-08-22T05:08:07.037Z,77.55
2022-08-22T05:09:07.081Z,77.65
2022-08-22T05:10:10.545Z,77.75
2022-08-22T05:11:08.122Z,77.65
2022-08-22T05:12:06.993Z,77.45
2022-08-22T05:13:06.986Z,77.45
2022-08-22T05:14:06.980Z,77.45
2022-08-22T05:15:07.233Z,77.55
2022-08-22T05:16:06.968Z,77.55
2022-08-22T05:17:06.944Z,77.75
2022-08-22T05:18:06.932Z,77.69
2022-08-22T05:19:06.920Z,77.69
2022-08-22T05:20:06.910Z,77.79
2022-08-22T05:21:07.499Z,77.89
2022-08-22T05:22:06.939Z,77.89
2022-08-22T05:23:06.901Z,77.99
2022-08-22T05:24:07.884Z,77.99
2022-08-22T05:25:06.858Z,77.99
2022-08-22T05:26:06.844Z,77.95
2022-08-22T05:27:06.850Z,77.95
2022-08-22T05:28:06.826Z,77.95
2022-08-22T05:29:06.835Z,78.06
2022-08-22T05:30:06.809Z,78.06
2022-08-22T05:31:07.387Z,78.06
2022-08-22T05:32:06.794Z,78.06
2022-08-22T05:33:06.787Z,78.16
2022-08-22T05:34:06.765Z,78.26
2022-08-22T05:35:06.760Z,78.26
2022-08-22T05:36:06.738Z,78.36
2022-08-22T05:37:08.061Z,78.26
2022-08-22T05:38:06.719Z,78.46
2022-08-22T05:39:06.716Z,78.22
2022-08-22T05:40:06.743Z,78.22
2022-08-22T05:41:06.692Z,78.22
2022-08-22T05:42:06.694Z,78.12
2022-08-22T05:43:06.684Z,77.82
2022-08-22T05:44:06.684Z,77.61
2022-08-22T05:45:06.647Z,77.72
2022-08-22T05:46:07.635Z,77.92
2022-08-22T05:47:06.643Z,77.82
2022-08-22T05:48:06.613Z,77.82
2022-08-22T05:49:06.605Z,77.82
2022-08-22T05:50:06.594Z,77.72
2022-08-22T05:51:06.587Z,77.72
2022-08-22T05:52:06.585Z,77.72
2022-08-22T05:53:06.569Z,77.58
2022-08-22T05:54:06.553Z,77.78
2022-08-22T05:55:06.555Z,77.58
2022-08-22T05:56:06.550Z,77.78
2022-08-22T05:57:08.054Z,77.88
2022-08-22T05:58:06.510Z,77.78
2022-08-22T05:59:08.462Z,77.98
2022-08-22T06:00:06.491Z,76.83
2022-08-22T06:01:06.482Z,76.12
2022-08-22T06:02:06.595Z,75.62
2022-08-22T06:03:06.462Z,75.21
2022-08-22T06:04:06.447Z,75.42
2022-08-22T06:05:09.955Z,75.52
2022-08-22T06:06:07.426Z,75.82
2022-08-22T06:07:06.428Z,76.53
2022-08-22T06:08:06.408Z,76.83
2022-08-22T06:09:06.406Z,76.73
2022-08-22T06:10:06.407Z,76.90
2022-08-22T06:11:06.373Z,76.70
2022-08-22T06:12:06.411Z,76.70
2022-08-22T06:13:06.360Z,76.59
2022-08-22T06:14:07.338Z,76.50
2022-08-22T06:15:12.278Z,76.59
2022-08-22T06:16:07.319Z,76.66
2022-08-22T06:17:06.343Z,76.66
2022-08-22T06:18:06.916Z,75.85
2022-08-22T06:19:19.399Z,75.24
2022-08-22T06:20:07.427Z,75.34
2022-08-22T06:21:06.270Z,76.26
2022-08-22T06:22:06.270Z,74.84
2022-08-22T06:23:06.268Z,74.54
2022-08-22T06:24:06.246Z,75.14
2022-08-22T06:25:06.236Z,76.02
2022-08-22T06:26:06.258Z,75.21
2022-08-22T06:27:07.218Z,75.51
2022-08-22T06:28:06.232Z,76.22
2022-08-22T06:29:06.183Z,76.32
2022-08-22T06:30:06.185Z,76.42
2022-08-22T06:31:06.167Z,76.42
2022-08-22T06:32:06.176Z,76.52
2022-08-22T06:33:06.145Z,75.71
2022-08-22T06:34:06.908Z,75.01
2022-08-22T06:35:06.144Z,75.01
2022-08-22T06:36:06.123Z,74.90
2022-08-22T06:37:06.117Z,74.70
2022-08-22T06:38:06.095Z,74.60
2022-08-22T06:39:06.079Z,74.60
2022-08-22T06:40:06.152Z,74.50
2022-08-22T06:41:06.065Z,74.50
2022-08-22T06:42:06.083Z,75.17
2022-08-22T06:43:06.043Z,75.27
2022-08-22T06:44:06.029Z,75.07
2022-08-22T06:45:06.020Z,75.37
2022-08-22T06:46:06.008Z,74.97
2022-08-22T06:47:06.013Z,74.77
2022-08-22T06:48:06.343Z,74.66
2022-08-22T06:49:05.977Z,75.17
2022-08-22T06:50:05.981Z,75.27
2022-08-22T06:51:05.978Z,74.87
2022-08-22T06:52:05.979Z,75.07
2022-08-22T06:53:05.932Z,75.24
2022-08-22T06:54:05.930Z,75.64
2022-08-22T06:55:05.935Z,74.33
2022-08-22T06:56:06.433Z,74.13
2022-08-22T06:57:05.904Z,74.02
2022-08-22T06:58:05.883Z,73.93
2022-08-22T06:59:05.872Z,74.13
2022-08-22T07:00:05.861Z,74.43
2022-08-22T07:01:12.444Z,74.29
2022-08-22T07:02:06.941Z,74.29
2022-08-22T07:03:05.845Z,73.69
2022-08-22T07:04:05.838Z,73.18
2022-08-22T07:05:05.817Z,72.58
2022-08-22T07:06:05.808Z,72.38
2022-08-22T07:07:05.803Z,72.34
2022-08-22T07:08:05.782Z,72.44
2022-08-22T07:09:06.765Z,72.85
2022-08-22T07:10:05.757Z,73.05
2022-08-22T07:11:05.742Z,73.05
2022-08-22T07:12:05.746Z,73.32
2022-08-22T07:13:05.743Z,73.11
2022-08-22T07:14:05.709Z,72.81
2022-08-22T07:15:05.699Z,72.51
2022-08-22T07:16:05.691Z,72.41
2022-08-22T07:17:05.696Z,72.11
2022-08-22T07:18:05.668Z,72.11
2022-08-22T07:19:05.669Z,72.20
2022-08-22T07:20:05.650Z,72.27
2022-08-22T07:21:05.646Z,72.47
2022-08-22T07:22:05.641Z,72.58
2022-08-22T07:23:05.625Z,72.78
2022-08-22T07:24:05.604Z,72.98
2022-08-22T07:25:05.602Z,71.87
2022-08-22T07:26:05.586Z,71.77
2022-08-22T07:27:05.597Z,71.87
2022-08-22T07:28:06.965Z,71.94
2022-08-22T07:29:10.318Z,71.53
2022-08-22T07:30:06.538Z,71.03
2022-08-22T07:31:05.548Z,70.83
2022-08-22T07:32:05.559Z,70.53
2022-08-22T07:33:26.172Z,70.42
2022-08-22T07:34:06.498Z,71.53
2022-08-22T07:35:05.487Z,71.73
2022-08-22T07:36:05.476Z,72.61
2022-08-22T07:37:05.480Z,72.71
2022-08-22T07:38:05.456Z,70.79
2022-08-22T07:39:05.446Z,70.50
2022-08-22T07:40:06.534Z,70.59
2022-08-22T07:41:05.423Z,70.50
2022-08-22T07:42:05.427Z,70.50
2022-08-22T07:43:05.401Z,70.26
2022-08-22T07:44:05.411Z,69.15
2022-08-22T07:45:05.385Z,69.25
2022-08-22T07:46:05.374Z,69.35
2022-08-22T07:47:05.930Z,70.36
2022-08-22T07:48:05.354Z,69.15
2022-08-22T07:49:09.605Z,68.31
2022-08-22T07:50:05.331Z,68.71
2022-08-22T07:51:05.317Z,68.62
2022-08-22T07:52:05.320Z,68.41
2022-08-22T07:53:05.316Z,69.09
2022-08-22T07:54:05.289Z,67.78
2022-08-22T07:55:05.308Z,67.68
2022-08-22T07:56:05.267Z,68.59
2022-08-22T07:57:05.269Z,68.18
2022-08-22T07:58:05.264Z,67.47
2022-08-22T07:59:09.426Z,66.17
2022-08-22T08:00:06.221Z,65.94
2022-08-22T08:01:05.266Z,65.33
2022-08-22T08:02:05.221Z,64.93
2022-08-22T08:03:05.192Z,65.23
2022-08-22T08:04:05.209Z,66.34
2022-08-22T08:05:05.170Z,66.31
2022-08-22T08:06:05.163Z,65.41
2022-08-22T08:07:05.173Z,65.10
2022-08-22T08:08:05.141Z,64.00
2022-08-22T08:09:05.150Z,64.77
2022-08-22T08:10:05.132Z,65.47
2022-08-22T08:11:05.124Z,64.97
2022-08-22T08:12:05.130Z,64.64
2022-08-22T08:13:05.086Z,64.84
2022-08-22T08:14:05.079Z,64.04
2022-08-22T08:15:05.073Z,63.40
2022-08-22T08:16:05.061Z,62.70
2022-08-22T08:17:05.072Z,63.00
2022-08-22T08:18:05.048Z,63.40
2022-08-22T08:19:05.027Z,62.97
2022-08-22T08:20:05.035Z,62.37
2022-08-22T08:21:05.015Z,61.27
2022-08-22T08:22:05.084Z,60.24
2022-08-22T08:23:05.027Z,59.74
2022-08-22T08:24:04.997Z,60.03
2022-08-22T08:25:04.990Z,60.61
2022-08-22T08:26:04.953Z,60.11
2022-08-22T08:27:04.963Z,60.11
2022-08-22T08:28:04.936Z,60.31
2022-08-22T08:29:04.928Z,59.41
2022-08-22T08:30:04.913Z,60.08
2022-08-22T08:31:04.899Z,60.08
2022-08-22T08:32:04.891Z,61.28
2022-08-22T08:33:25.091Z,60.78
2022-08-22T08:34:05.867Z,60.55
2022-08-22T08:35:04.879Z,59.85
2022-08-22T08:36:04.857Z,59.35
2022-08-22T08:37:04.845Z,59.05
2022-08-22T08:38:04.857Z,58.52
2022-08-22T08:39:04.813Z,59.12
2022-08-22T08:40:04.894Z,58.92
2022-08-22T08:41:04.793Z,58.92
2022-08-22T08:42:04.824Z,58.22
2022-08-22T08:43:04.787Z,57.92
2022-08-22T08:44:04.761Z,57.72
2022-08-22T08:45:04.755Z,58.32
2022-08-22T08:46:04.744Z,58.62
2022-08-22T08:47:04.747Z,58.82
2022-08-22T08:48:04.749Z,58.82
2022-08-22T08:49:06.498Z,58.72
2022-08-22T08:50:04.724Z,58.49
2022-08-22T08:51:04.698Z,58.39
2022-08-22T08:52:04.679Z,59.19
2022-08-22T08:53:04.682Z,58.39
2022-08-22T08:54:04.656Z,59.49
2022-08-22T08:55:19.649Z,59.39
2022-08-22T08:56:05.649Z,61.09
2022-08-22T08:57:04.626Z,60.19
2022-08-22T08:58:06.847Z,59.86
2022-08-22T08:59:10.240Z,58.17
2022-08-22T09:00:05.590Z,56.96
2022-08-22T09:01:04.922Z,56.96
2022-08-22T09:02:04.615Z,57.07
2022-08-22T09:03:06.940Z,57.07
2022-08-22T09:04:04.553Z,57.04
2022-08-22T09:05:04.546Z,56.14
2022-08-22T09:06:04.531Z,56.74
2022-08-22T09:07:04.522Z,57.24
2022-08-22T09:08:04.523Z,57.54
2022-08-22T09:09:04.506Z,56.74
2022-08-22T09:10:04.489Z,56.41
2022-08-22T09:11:04.482Z,57.01
2022-08-22T09:12:05.468Z,55.32
2022-08-22T09:13:12.370Z,55.32
2022-08-22T09:14:05.444Z,55.32
2022-08-22T09:15:04.459Z,54.41
2022-08-22T09:16:05.624Z,55.41
2022-08-22T09:17:04.421Z,55.41
2022-08-22T09:18:04.418Z,55.79
2022-08-22T09:19:04.395Z,54.79
2022-08-22T09:20:17.685Z,55.09
2022-08-22T09:21:05.390Z,55.19
2022-08-22T09:22:04.363Z,54.99
2022-08-22T09:23:04.376Z,54.89
2022-08-22T09:24:05.342Z,52.49
2022-08-22T09:25:06.004Z,53.27
2022-08-22T09:26:04.973Z,52.76
2022-08-22T09:27:08.729Z,53.06
2022-08-22T09:28:04.351Z,53.86
2022-08-22T09:29:04.319Z,52.47
2022-08-22T09:31:22.199Z,51.97
2022-08-22T09:32:05.270Z,51.07
2022-08-22T09:33:05.269Z,51.97
2022-08-22T09:34:05.128Z,51.77
2022-08-22T09:35:04.228Z,51.77
2022-08-22T09:36:05.094Z,52.55
2022-08-22T09:37:04.211Z,51.45
2022-08-22T09:38:04.217Z,50.95
2022-08-22T09:39:05.862Z,50.95
2022-08-22T09:40:04.241Z,51.25
2022-08-22T09:40:15.633Z,51.87
2022-08-22T09:41:04.174Z,51.45
2022-08-22T09:42:04.159Z,52.04
2022-08-22T09:43:04.161Z,51.84
2022-08-22T09:44:04.131Z,51.22
2022-08-22T09:45:04.123Z,50.92
2022-08-22T09:46:04.109Z,51.52
2022-08-22T09:47:04.102Z,51.72
2022-08-22T09:48:07.813Z,52.32
2022-08-22T09:49:05.570Z,51.79
2022-08-22T09:50:04.127Z,52.00
2022-08-22T09:51:20.048Z,50.80
2022-08-22T09:52:14.298Z,51.00
2022-08-22T09:53:05.048Z,51.07
2022-08-22T09:54:04.235Z,50.78
2022-08-22T09:55:04.016Z,49.38
2022-08-22T09:56:15.621Z,49.78
2022-08-22T09:57:04.993Z,51.27
2022-08-22T09:58:03.998Z,50.85
2022-08-22T09:59:03.975Z,49.95
2022-08-22T10:00:03.964Z,49.06
2022-08-22T10:01:04.010Z,49.55
2022-08-22T10:02:06.042Z,49.95
2022-08-22T10:03:03.960Z,50.35
2022-08-22T10:04:03.935Z,51.45
2022-08-22T10:05:04.294Z,50.25
2022-08-22T10:06:03.916Z,49.53
2022-08-22T10:07:06.497Z,48.83
2022-08-22T10:08:05.201Z,49.13
2022-08-22T10:09:03.867Z,49.04
2022-08-22T10:10:03.856Z,48.24
2022-08-22T10:11:03.850Z,49.13
2022-08-22T10:12:03.834Z,50.63
2022-08-22T10:13:03.850Z,49.63
2022-08-22T10:14:04.813Z,46.95
2022-08-22T10:15:03.807Z,47.64
2022-08-22T10:16:03.807Z,47.25
2022-08-22T10:17:03.819Z,46.62
2022-08-22T10:18:03.868Z,47.82
2022-08-22T10:19:03.763Z,47.52
2022-08-22T10:20:03.750Z,47.13
2022-08-22T10:21:03.744Z,47.13
2022-08-22T10:22:03.730Z,46.31
2022-08-22T10:23:03.805Z,46.90
2022-08-22T10:24:03.709Z,47.20
2022-08-22T10:25:03.702Z,45.81
2022-08-22T10:26:03.697Z,44.92
2022-08-22T10:27:03.689Z,46.80
2022-08-22T10:28:03.713Z,44.81
2022-08-22T10:29:03.668Z,45.79
2022-08-22T10:30:04.496Z,45.29
2022-08-22T10:31:03.652Z,46.19
2022-08-22T10:32:10.756Z,46.28
2022-08-22T10:33:05.297Z,45.89
2022-08-22T10:34:03.610Z,46.16
2022-08-22T10:35:03.607Z,45.27
2022-08-22T10:36:05.012Z,45.67
2022-08-22T10:37:03.574Z,46.66
2022-08-22T10:38:03.659Z,46.86
2022-08-22T10:39:10.902Z,46.06
2022-08-22T10:40:04.613Z,44.67
2022-08-22T10:41:03.556Z,44.07
2022-08-22T10:42:04.526Z,46.56
2022-08-22T10:43:03.565Z,45.67
2022-08-22T10:44:03.949Z,45.74
2022-08-22T10:45:03.538Z,45.05
2022-08-22T10:46:03.623Z,45.74
2022-08-22T10:47:03.476Z,46.44
2022-08-22T10:48:03.480Z,45.45
2022-08-22T10:49:08.063Z,45.23
2022-08-22T10:50:03.460Z,45.42
2022-08-22T10:51:04.426Z,45.52
2022-08-22T10:52:14.804Z,44.81
2022-08-22T10:53:04.405Z,44.21
2022-08-22T10:54:03.396Z,44.21
2022-08-22T10:55:05.668Z,43.22
2022-08-22T10:56:04.378Z,43.62
2022-08-22T10:57:03.404Z,44.09
2022-08-22T10:58:03.359Z,44.19
2022-08-22T10:59:03.999Z,43.60
2022-08-22T11:00:03.339Z,43.79
2022-08-22T11:01:38.205Z,43.00
2022-08-22T11:02:04.374Z,43.70
2022-08-22T11:03:03.329Z,43.89
2022-08-22T11:04:03.295Z,43.70
2022-08-22T11:05:03.283Z,44.56
2022-08-22T11:06:03.280Z,45.06
2022-08-22T11:07:03.285Z,43.38
2022-08-22T11:08:03.270Z,39.22
2022-08-22T11:09:03.239Z,39.31
2022-08-22T11:10:03.246Z,39.81
2022-08-22T11:11:03.225Z,40.31
2022-08-22T11:12:04.458Z,40.50
2022-08-22T11:13:03.215Z,41.10
2022-08-22T11:14:03.193Z,43.08
2022-08-22T11:15:03.296Z,42.78
2022-08-22T11:16:04.147Z,42.88
2022-08-22T11:17:11.964Z,41.89
2022-08-22T11:18:04.151Z,42.19
2022-08-22T11:19:15.303Z,41.60
2022-08-22T11:20:04.132Z,41.60
2022-08-22T11:21:03.129Z,43.28
2022-08-22T11:22:03.772Z,43.28
2022-08-22T11:23:03.099Z,43.18
2022-08-22T11:24:03.094Z,42.60
2022-08-22T11:25:04.769Z,43.38
2022-08-22T11:26:05.205Z,43.60
2022-08-22T11:27:03.073Z,43.40
2022-08-22T11:28:03.050Z,43.70
2022-08-22T11:29:13.431Z,43.52
2022-08-22T11:30:04.101Z,43.62
2022-08-22T11:31:03.036Z,43.22
2022-08-22T11:32:06.029Z,42.80
2022-08-22T11:33:03.520Z,42.90
2022-08-22T11:34:03.003Z,42.11
2022-08-22T11:35:02.980Z,42.58
2022-08-22T11:36:04.624Z,42.38
2022-08-22T11:37:02.971Z,42.38
2022-08-22T11:38:03.946Z,42.66
2022-08-22T11:39:02.936Z,41.47
2022-08-22T11:40:03.018Z,41.67
2022-08-22T11:41:02.925Z,42.07
2022-08-22T11:42:02.946Z,41.25
2022-08-22T11:43:03.543Z,40.47
2022-08-22T11:44:03.503Z,42.05
2022-08-22T11:45:02.891Z,39.97
2022-08-22T11:46:02.868Z,40.84
2022-08-22T11:47:02.866Z,41.14
2022-08-22T11:48:02.850Z,41.73
2022-08-22T11:49:02.831Z,41.83
2022-08-22T11:50:02.828Z,41.53
2022-08-22T11:51:02.812Z,40.62
2022-08-22T11:52:03.845Z,41.61
2022-08-22T11:53:04.474Z,41.61
2022-08-22T11:54:02.797Z,40.42
2022-08-22T11:55:02.772Z,39.43
2022-08-22T11:56:05.576Z,39.43
2022-08-22T11:57:02.760Z,38.75
2022-08-22T11:58:02.760Z,38.55
2022-08-22T11:59:02.763Z,39.04
2022-08-22T12:00:02.744Z,38.65
2022-08-22T12:01:02.706Z,38.35
2022-08-22T12:02:03.960Z,39.04
2022-08-22T12:03:02.688Z,38.55
2022-08-22T12:04:03.504Z,39.24
2022-08-22T12:05:02.663Z,40.13
2022-08-22T12:06:02.661Z,40.55
2022-08-22T12:07:02.663Z,39.83
2022-08-22T12:08:02.648Z,40.03
2022-08-22T12:09:03.545Z,38.65
2022-08-22T12:10:02.721Z,39.62
2022-08-22T12:11:02.607Z,38.53
2022-08-22T12:12:04.677Z,39.42
2022-08-22T12:13:02.583Z,36.54
2022-08-22T12:14:06.511Z,37.23
2022-08-22T12:15:02.562Z,38.81
2022-08-22T12:16:02.555Z,36.95
2022-08-22T12:17:02.552Z,38.12
2022-08-22T12:18:02.532Z,38.53
2022-08-22T12:19:02.518Z,38.82
2022-08-22T12:20:18.654Z,38.04
2022-08-22T12:21:03.496Z,38.25
2022-08-22T12:22:02.519Z,39.34
2022-08-22T12:23:02.802Z,39.06
2022-08-22T12:24:06.138Z,40.45
2022-08-22T12:25:03.217Z,39.58
2022-08-22T12:26:02.456Z,39.67
2022-08-22T12:27:02.448Z,40.07
2022-08-22T12:28:03.427Z,39.67
2022-08-22T12:29:02.414Z,39.87
2022-08-22T12:30:02.472Z,39.46
2022-08-22T12:31:02.398Z,39.75
2022-08-22T12:32:02.582Z,38.06
2022-08-22T12:33:02.379Z,37.46
2022-08-22T12:34:02.372Z,38.15
2022-08-22T12:35:02.365Z,38.84
2022-08-22T12:36:03.342Z,39.91
2022-08-22T12:37:02.372Z,38.33
2022-08-22T12:38:02.324Z,40.80
2022-08-22T12:39:02.310Z,39.24
2022-08-22T12:40:02.375Z,38.84
2022-08-22T12:41:02.289Z,40.33
2022-08-22T12:42:04.134Z,42.11
2022-08-22T12:43:02.266Z,39.83
2022-08-22T12:44:02.258Z,40.15
2022-08-22T12:45:02.246Z,39.56
2022-08-22T12:46:02.241Z,38.96
2022-08-22T12:47:02.252Z,39.46
2022-08-22T12:48:02.228Z,40.05